createdAt,value
2023-04-16T00:02:18.444Z,100158.44
2023-04-16T00:05:21.213Z,100165.19
2023-04-16T00:08:24.793Z,100168.38
2023-04-16T00:11:27.377Z,100172.53
2023-04-16T00:14:30.363Z,100174.31
2023-04-16T00:17:32.779Z,100146.19
2023-04-16T00:20:35.192Z,100144.56
2023-04-16T00:23:38.053Z,100153.78
2023-04-16T00:26:41.036Z,100145.63
2023-04-16T00:29:43.680Z,100176.41
2023-04-16T00:32:46.213Z,100182.59
2023-04-16T00:35:49.032Z,100196.38
2023-04-16T00:38:51.657Z,100166.97
2023-04-16T00:41:54.019Z,100169.72
2023-04-16T00:44:56.478Z,100178.22
2023-04-16T00:48:00.673Z,100190.75
2023-04-16T00:51:06.555Z,100169.81
2023-04-16T00:54:08.937Z,100190.28
2023-04-16T00:57:14.191Z,100170.25
2023-04-16T01:00:17.129Z,100200.09
2023-04-16T01:03:19.906Z,100174.59
2023-04-16T01:06:23.476Z,100167.09
2023-04-16T01:09:26.332Z,100189.09
2023-04-16T01:12:29.106Z,100174.72
2023-04-16T01:15:31.952Z,100202.06
2023-04-16T01:18:34.896Z,100185.06
2023-04-16T01:21:37.432Z,100171.53
2023-04-16T01:24:40.556Z,100191.94
2023-04-16T01:27:49.696Z,100179.16
2023-04-16T01:30:52.186Z,100191.91
2023-04-16T01:34:03.619Z,100186.69
2023-04-16T01:37:06.256Z,100183.72
2023-04-16T01:40:08.997Z,100202.66
2023-04-16T01:43:11.431Z,100201.09
2023-04-16T01:46:23.520Z,100203.69
2023-04-16T01:49:26.111Z,100174.75
2023-04-16T01:52:29.153Z,100218.09
2023-04-16T01:55:35.615Z,100189.31
2023-04-16T01:58:38.609Z,100204.50
2023-04-16T02:01:42.111Z,100177.53
2023-04-16T02:04:46.409Z,100204.56
2023-04-16T02:07:49.071Z,100164.03
2023-04-16T02:10:52.321Z,100202.28
2023-04-16T02:13:54.820Z,100209.09
2023-04-16T02:16:57.685Z,100188.25
2023-04-16T02:20:12.730Z,100184.06
2023-04-16T02:23:27.708Z,100190.19
2023-04-16T02:26:31.074Z,100183.13
2023-04-16T02:29:39.207Z,100191.81
2023-04-16T02:32:49.749Z,100171.56
2023-04-16T02:35:53.206Z,100204.66
2023-04-16T02:38:55.726Z,100193.56
2023-04-16T02:41:59.428Z,100203.00
2023-04-16T02:45:02.447Z,100187.13
2023-04-16T02:48:07.292Z,100192.53
2023-04-16T02:51:09.713Z,100171.97
2023-04-16T02:54:12.283Z,100205.97
2023-04-16T02:57:14.638Z,100216.34
2023-04-16T03:00:17.244Z,100193.00
2023-04-16T03:03:20.551Z,100228.44
2023-04-16T03:06:23.380Z,100211.09
2023-04-16T03:09:25.856Z,100239.88
2023-04-16T03:12:28.544Z,100218.50
2023-04-16T03:15:31.678Z,100211.31
2023-04-16T03:18:34.474Z,100220.94
2023-04-16T03:21:36.877Z,100224.56
2023-04-16T03:24:39.220Z,100216.91
2023-04-16T03:27:41.749Z,100216.47
2023-04-16T03:30:51.380Z,100221.66
2023-04-16T03:33:53.894Z,100217.56
2023-04-16T03:36:56.334Z,100213.94
2023-04-16T03:39:58.929Z,100251.09
2023-04-16T03:43:01.434Z,100254.69
2023-04-16T03:46:04.646Z,100238.50
2023-04-16T03:49:07.631Z,100225.88
2023-04-16T03:52:11.449Z,100237.09
2023-04-16T03:55:14.142Z,100236.34
2023-04-16T03:58:17.426Z,100262.78
2023-04-16T04:01:19.961Z,100263.41
2023-04-16T04:04:23.525Z,100238.78
2023-04-16T04:07:26.215Z,100231.63
2023-04-16T04:10:28.886Z,100276.03
2023-04-16T04:13:31.334Z,100270.19
2023-04-16T04:16:34.791Z,100265.88
2023-04-16T04:19:40.274Z,100294.25
2023-04-16T04:22:45.417Z,100301.13
2023-04-16T04:25:47.978Z,100298.19
2023-04-16T04:28:50.601Z,100299.78
2023-04-16T04:31:55.264Z,100303.97
2023-04-16T04:35:01.448Z,100305.34
2023-04-16T04:38:04.242Z,100278.91
2023-04-16T04:41:06.811Z,100271.22
2023-04-16T04:44:12.130Z,100268.41
2023-04-16T04:47:15.491Z,100289.44
2023-04-16T04:50:18.320Z,100273.72
2023-04-16T04:53:20.800Z,100280.06
2023-04-16T04:56:23.718Z,100304.44
2023-04-16T04:59:26.788Z,100283.47
2023-04-16T05:02:29.387Z,100309.94
2023-04-16T05:05:32.231Z,100311.50
2023-04-16T05:08:34.742Z,100305.25
2023-04-16T05:11:42.080Z,100304.81
2023-04-16T05:14:44.449Z,100302.59
2023-04-16T05:17:46.889Z,100305.84
2023-04-16T05:20:49.266Z,100276.84
2023-04-16T05:23:52.148Z,100313.22
2023-04-16T05:26:54.563Z,100308.78
2023-04-16T05:29:56.943Z,100289.41
2023-04-16T05:32:59.403Z,100293.06
2023-04-16T05:36:01.861Z,100323.81
2023-04-16T05:39:04.307Z,100310.28
2023-04-16T05:42:06.705Z,100315.16
2023-04-16T05:45:09.535Z,100324.00
2023-04-16T05:48:12.473Z,100306.22
2023-04-16T05:51:14.834Z,100312.06
2023-04-16T05:54:17.276Z,100316.91
2023-04-16T05:57:19.604Z,100342.66
2023-04-16T06:00:22.224Z,100358.69
2023-04-16T06:03:24.721Z,100364.88
2023-04-16T06:06:27.736Z,100350.81
2023-04-16T06:09:30.570Z,100343.81
2023-04-16T06:12:33.298Z,100363.97
2023-04-16T06:15:35.736Z,100356.22
2023-04-16T06:18:38.397Z,100360.72
2023-04-16T06:21:44.623Z,100358.84
2023-04-16T06:24:47.101Z,100351.53
2023-04-16T06:27:49.667Z,100358.84
2023-04-16T06:30:52.188Z,100325.53
2023-04-16T06:33:54.891Z,100351.81
2023-04-16T06:36:57.338Z,100344.63
2023-04-16T06:39:59.755Z,100349.31
2023-04-16T06:43:02.116Z,100335.00
2023-04-16T06:46:04.558Z,100342.41
2023-04-16T06:49:07.458Z,100347.19
2023-04-16T06:52:09.914Z,100354.75
2023-04-16T06:55:12.345Z,100363.00
2023-04-16T06:58:14.784Z,100370.66
2023-04-16T07:01:18.230Z,100364.94
2023-04-16T07:04:21.215Z,100352.41
2023-04-16T07:07:23.959Z,100335.66
2023-04-16T07:10:26.321Z,100363.50
2023-04-16T07:13:28.717Z,100356.34
2023-04-16T07:16:31.506Z,100371.78
2023-04-16T07:19:34.058Z,100361.03
2023-04-16T07:22:36.527Z,100361.75
2023-04-16T07:25:38.863Z,100366.88
2023-04-16T07:28:41.618Z,100351.84
2023-04-16T07:31:45.443Z,100352.97
2023-04-16T07:34:48.331Z,100370.38
2023-04-16T07:37:50.912Z,100367.47
2023-04-16T07:40:53.410Z,100352.44
2023-04-16T07:43:55.877Z,100345.41
2023-04-16T07:46:58.257Z,100357.97
2023-04-16T07:50:00.670Z,100351.44
2023-04-16T07:53:03.657Z,100352.03
2023-04-16T07:56:06.409Z,100369.56
2023-04-16T08:02:17.735Z,100368.06
2023-04-16T08:05:20.447Z,100362.00
2023-04-16T08:08:23.006Z,100354.03
2023-04-16T08:11:25.444Z,100349.41
2023-04-16T08:14:28.015Z,100371.34
2023-04-16T08:17:30.460Z,100349.22
2023-04-16T08:20:33.183Z,100345.50
2023-04-16T08:23:36.011Z,100343.63
2023-04-16T08:26:38.529Z,100340.94
2023-04-16T08:29:41.081Z,100350.00
2023-04-16T08:32:43.799Z,100357.81
2023-04-16T08:35:46.301Z,100359.13
2023-04-16T08:38:48.698Z,100345.72
2023-04-16T08:41:54.368Z,100363.50
2023-04-16T08:45:07.290Z,100346.03
2023-04-16T08:48:11.946Z,100355.34
2023-04-16T08:51:17.250Z,100357.91
2023-04-16T08:54:34.759Z,100340.03
2023-04-16T08:57:48.886Z,100336.22
2023-04-16T09:00:52.251Z,100315.72
2023-04-16T09:03:55.345Z,100345.03
2023-04-16T09:06:58.999Z,100335.16
2023-04-16T09:10:02.012Z,100336.00
2023-04-16T09:13:04.561Z,100350.13
2023-04-16T09:16:08.857Z,100354.06
2023-04-16T09:19:11.528Z,100347.66
2023-04-16T09:22:14.413Z,100342.63
2023-04-16T09:25:17.395Z,100336.50
2023-04-16T09:28:38.779Z,100358.59
2023-04-16T09:31:41.665Z,100342.13
2023-04-16T09:35:00.791Z,100364.16
2023-04-16T09:38:10.788Z,100362.81
2023-04-16T09:41:16.594Z,100356.03
2023-04-16T09:44:19.002Z,100361.56
2023-04-16T09:47:22.547Z,100355.72
2023-04-16T09:50:26.500Z,100357.13
2023-04-16T09:53:30.907Z,100340.03
2023-04-16T09:56:33.763Z,100359.69
2023-04-16T09:59:36.522Z,100332.44
2023-04-16T10:02:42.701Z,100352.59
2023-04-16T10:05:45.436Z,100356.19
2023-04-16T10:08:50.295Z,100339.63
2023-04-16T10:11:53.317Z,100354.41
2023-04-16T10:14:56.046Z,100350.03
2023-04-16T10:18:00.286Z,100350.38
2023-04-16T10:21:03.099Z,100347.50
2023-04-16T10:24:06.173Z,100334.66
2023-04-16T10:27:08.488Z,100337.97
2023-04-16T10:30:11.726Z,100312.59
2023-04-16T10:33:14.712Z,100327.38
2023-04-16T10:36:23.808Z,100333.09
2023-04-16T10:39:29.170Z,100329.69
2023-04-16T10:42:31.843Z,100340.50
2023-04-16T10:45:39.999Z,100321.75
2023-04-16T10:48:49.773Z,100321.69
2023-04-16T10:51:56.754Z,100331.81
2023-04-16T10:54:59.760Z,100334.84
2023-04-16T10:58:02.158Z,100303.34
2023-04-16T11:01:16.454Z,100320.25
2023-04-16T11:04:22.052Z,100321.25
2023-04-16T11:07:35.175Z,100302.31
2023-04-16T11:10:39.556Z,100316.00
2023-04-16T11:13:45.973Z,100305.13
2023-04-16T11:16:48.794Z,100302.00
2023-04-16T11:19:53.732Z,100315.72
2023-04-16T11:22:57.687Z,100320.13
2023-04-16T11:26:00.964Z,100319.56
2023-04-16T11:29:14.871Z,100309.28
2023-04-16T11:32:23.353Z,100306.28
2023-04-16T11:35:25.913Z,100293.59
2023-04-16T11:38:38.566Z,100285.78
2023-04-16T11:41:45.922Z,100305.78
2023-04-16T11:45:00.652Z,100279.63
2023-04-16T11:48:03.248Z,100295.78
2023-04-16T11:51:05.685Z,100293.84
2023-04-16T11:54:11.129Z,100288.38
2023-04-16T11:57:14.369Z,100287.63
2023-04-16T12:00:17.112Z,100276.78
2023-04-16T12:03:37.572Z,100274.28
2023-04-16T12:06:40.223Z,100280.91
2023-04-16T12:09:44.836Z,100262.56
2023-04-16T12:12:47.367Z,100266.59
2023-04-16T12:15:51.747Z,100256.94
2023-04-16T12:19:03.864Z,100264.16
2023-04-16T12:22:06.639Z,100253.13
2023-04-16T12:25:16.352Z,100242.56
2023-04-16T12:28:35.175Z,100258.47
2023-04-16T12:31:38.221Z,100233.69
2023-04-16T12:34:51.443Z,100257.47
2023-04-16T12:37:53.898Z,100242.81
2023-04-16T12:40:57.645Z,100250.31
2023-04-16T12:44:18.260Z,100242.81
2023-04-16T12:47:20.831Z,100240.28
2023-04-16T12:50:23.252Z,100226.97
2023-04-16T12:53:26.136Z,100232.84
2023-04-16T12:56:28.762Z,100238.69
2023-04-16T12:59:31.344Z,100229.03
2023-04-16T13:02:34.367Z,100227.44
2023-04-16T13:05:36.990Z,100219.69
2023-04-16T13:08:40.346Z,100201.69
2023-04-16T13:11:42.837Z,100195.53
2023-04-16T13:14:45.827Z,100212.09
2023-04-16T13:17:48.496Z,100199.59
2023-04-16T13:20:50.978Z,100188.09
2023-04-16T13:23:54.094Z,100179.75
2023-04-16T13:26:56.902Z,100192.63
2023-04-16T13:29:59.740Z,100178.19
2023-04-16T13:33:02.570Z,100189.47
2023-04-16T13:36:05.544Z,100187.03
2023-04-16T13:39:11.557Z,100182.47
2023-04-16T13:42:14.453Z,100184.94
2023-04-16T13:45:17.227Z,100171.19
2023-04-16T13:48:19.627Z,100165.00
2023-04-16T13:51:22.643Z,100179.09
2023-04-16T13:54:25.438Z,100171.47
2023-04-16T13:57:28.841Z,100128.31
2023-04-16T14:00:32.290Z,100156.78
2023-04-16T14:03:36.379Z,100169.47
2023-04-16T14:06:38.870Z,100148.81
2023-04-16T14:09:41.722Z,100164.41
2023-04-16T14:12:45.657Z,100145.72
2023-04-16T14:15:48.083Z,100145.94
2023-04-16T14:18:51.971Z,100150.13
2023-04-16T14:21:54.638Z,100136.53
2023-04-16T14:24:57.026Z,100132.06
2023-04-16T14:28:00.744Z,100154.25
2023-04-16T14:31:03.405Z,100136.97
2023-04-16T14:34:06.138Z,100126.84
2023-04-16T14:37:08.798Z,100123.28
2023-04-16T14:40:12.360Z,100136.47
2023-04-16T14:43:14.976Z,100112.13
2023-04-16T14:46:17.875Z,100131.81
2023-04-16T14:49:20.822Z,100127.16
2023-04-16T14:52:23.941Z,100107.41
2023-04-16T14:55:26.449Z,100130.84
2023-04-16T14:58:28.840Z,100126.44
2023-04-16T15:01:32.739Z,100116.91
2023-04-16T15:04:35.328Z,100098.31
2023-04-16T15:07:38.060Z,100100.28
2023-04-16T15:10:42.529Z,100098.31
2023-04-16T15:13:44.948Z,100102.06
2023-04-16T15:16:48.581Z,100089.78
2023-04-16T15:19:52.204Z,100094.56
2023-04-16T15:22:54.820Z,100093.22
2023-04-16T15:25:57.769Z,100101.25
2023-04-16T15:29:00.513Z,100119.00
2023-04-16T15:32:03.191Z,100114.72
2023-04-16T15:35:06.228Z,100110.72
2023-04-16T15:38:08.713Z,100107.59
2023-04-16T15:41:11.133Z,100113.88
2023-04-16T15:44:13.649Z,100098.28
2023-04-16T15:47:16.325Z,100126.19
2023-04-16T15:50:20.006Z,100112.19
2023-04-16T15:53:22.677Z,100096.81
2023-04-16T15:56:25.682Z,100091.25
2023-04-16T15:59:28.030Z,100102.59
2023-04-16T16:02:30.900Z,100083.16
2023-04-16T16:05:33.813Z,100089.97
2023-04-16T16:08:38.196Z,100103.38
2023-04-16T16:11:41.700Z,100080.56
2023-04-16T16:14:44.628Z,100098.41
2023-04-16T16:17:47.270Z,100103.28
2023-04-16T16:20:50.036Z,100104.13
2023-04-16T16:23:53.369Z,100109.00
2023-04-16T16:26:56.810Z,100104.66
2023-04-16T16:30:01.073Z,100091.91
2023-04-16T16:33:03.831Z,100088.66
2023-04-16T16:36:10.866Z,100087.09
2023-04-16T16:39:13.461Z,100093.38
2023-04-16T16:42:18.729Z,100112.34
2023-04-16T16:45:21.471Z,100117.94
2023-04-16T16:48:24.065Z,100101.53
2023-04-16T16:51:27.747Z,100114.53
2023-04-16T16:54:30.293Z,100103.19
2023-04-16T16:57:32.916Z,100124.44
2023-04-16T17:00:36.133Z,100096.34
2023-04-16T17:03:38.787Z,100124.75
2023-04-16T17:06:41.791Z,100106.25
2023-04-16T17:09:46.228Z,100117.03
2023-04-16T17:12:51.068Z,100099.00
2023-04-16T17:15:53.454Z,100109.47
2023-04-16T17:18:56.434Z,100132.13
2023-04-16T17:21:59.461Z,100133.25
2023-04-16T17:25:02.294Z,100135.56
2023-04-16T17:28:05.170Z,100137.47
2023-04-16T17:31:08.507Z,100131.09
2023-04-16T17:34:11.672Z,100115.06
2023-04-16T17:37:14.597Z,100122.81
2023-04-16T17:40:18.482Z,100115.78
2023-04-16T17:43:21.281Z,100140.84
2023-04-16T17:46:24.076Z,100143.34
2023-04-16T17:49:26.777Z,100124.06
2023-04-16T17:52:29.697Z,100118.22
2023-04-16T17:55:32.093Z,100119.16
2023-04-16T17:58:35.394Z,100146.06
2023-04-16T18:01:38.737Z,100149.53
2023-04-16T18:04:42.048Z,100116.72
2023-04-16T18:07:46.949Z,100146.38
2023-04-16T18:10:49.676Z,100148.47
2023-04-16T18:13:53.868Z,100130.97
2023-04-16T18:16:56.599Z,100138.28
2023-04-16T18:19:59.107Z,100141.44
2023-04-16T18:23:02.646Z,100138.81
2023-04-16T18:26:07.643Z,100134.47
2023-04-16T18:29:12.407Z,100129.13
2023-04-16T18:32:16.385Z,100152.97
2023-04-16T18:35:19.331Z,100142.47
2023-04-16T18:38:22.045Z,100113.41
2023-04-16T18:41:24.796Z,100115.47
2023-04-16T18:44:27.432Z,100113.78
2023-04-16T18:47:30.291Z,100139.63
2023-04-16T18:50:32.999Z,100145.69
2023-04-16T18:53:36.039Z,100150.47
2023-04-16T18:56:38.733Z,100145.34
2023-04-16T18:59:41.332Z,100145.78
2023-04-16T19:02:44.389Z,100119.47
2023-04-16T19:05:47.418Z,100143.81
2023-04-16T19:08:50.705Z,100072.19
2023-04-16T19:11:54.278Z,100139.19
2023-04-16T19:14:57.016Z,100129.19
2023-04-16T19:17:59.657Z,100134.91
2023-04-16T19:21:03.394Z,100146.44
2023-04-16T19:24:06.112Z,100122.34
2023-04-16T19:27:08.790Z,100134.41
2023-04-16T19:30:11.734Z,100127.78
2023-04-16T19:33:14.607Z,100099.63
2023-04-16T19:36:18.762Z,100126.38
2023-04-16T19:39:21.476Z,100127.22
2023-04-16T19:42:24.322Z,100110.53
2023-04-16T19:45:27.745Z,100126.50
2023-04-16T19:48:31.782Z,100108.75
2023-04-16T19:51:34.808Z,100115.13
2023-04-16T19:54:38.562Z,100109.97
2023-04-16T19:57:41.409Z,100109.97
2023-04-16T20:00:44.303Z,100113.75
2023-04-16T20:03:47.127Z,100110.66
2023-04-16T20:06:49.815Z,100110.22
2023-04-16T20:09:53.137Z,100105.28
2023-04-16T20:12:56.009Z,100108.28
2023-04-16T20:15:58.694Z,100086.13
2023-04-16T20:19:04.151Z,100105.22
2023-04-16T20:22:07.772Z,100104.78
2023-04-16T20:25:11.462Z,100118.56
2023-04-16T20:28:21.157Z,100109.22
2023-04-16T20:31:23.692Z,100062.84
2023-04-16T20:34:27.799Z,100111.88
2023-04-16T20:37:31.253Z,100082.97
2023-04-16T20:40:34.163Z,100107.03
2023-04-16T20:43:44.079Z,100073.94
2023-04-16T20:46:49.781Z,100100.97
2023-04-16T20:49:52.919Z,100110.56
2023-04-16T20:52:55.428Z,100114.13
2023-04-16T20:55:58.318Z,100088.00
2023-04-16T20:59:00.998Z,100118.59
2023-04-16T21:02:04.023Z,100122.13
2023-04-16T21:05:10.267Z,100105.25
2023-04-16T21:08:12.722Z,100119.44
2023-04-16T21:11:15.161Z,100106.03
2023-04-16T21:14:17.582Z,100115.53
2023-04-16T21:17:20.024Z,100082.78
2023-04-16T21:20:22.806Z,100080.56
2023-04-16T21:23:25.285Z,100120.06
2023-04-16T21:26:27.666Z,100098.19
2023-04-16T21:29:30.418Z,100090.16
2023-04-16T21:32:33.065Z,100090.16
2023-04-16T21:35:35.525Z,100089.41
2023-04-16T21:38:38.007Z,100076.19
2023-04-16T21:41:40.431Z,100080.56
2023-04-16T21:44:42.786Z,100086.72
2023-04-16T21:47:45.125Z,100084.56
2023-04-16T21:50:47.501Z,100106.09
2023-04-16T21:53:50.336Z,100092.22
2023-04-16T21:56:52.835Z,100086.22
2023-04-16T21:59:55.204Z,100076.44
2023-04-16T22:03:00.426Z,100079.53
2023-04-16T22:06:03.322Z,100077.47
2023-04-16T22:09:06.652Z,100057.28
2023-04-16T22:12:10.509Z,100104.44
2023-04-16T22:15:13.925Z,100105.44
2023-04-16T22:18:16.326Z,100091.38
2023-04-16T22:21:19.032Z,100096.22
2023-04-16T22:24:21.391Z,100088.66
2023-04-16T22:27:23.815Z,100085.31
2023-04-16T22:30:26.222Z,100087.91
2023-04-16T22:33:31.496Z,100105.38
2023-04-16T22:36:33.890Z,100082.22
2023-04-16T22:39:36.837Z,100075.66
2023-04-16T22:42:39.296Z,100089.38
2023-04-16T22:45:43.103Z,100113.91
2023-04-16T22:48:45.906Z,100063.53
2023-04-16T22:51:48.358Z,100078.56
2023-04-16T22:54:51.231Z,100112.44
2023-04-16T22:57:53.667Z,100086.38
2023-04-16T23:00:59.418Z,100113.16
2023-04-16T23:04:02.245Z,100109.63
2023-04-16T23:07:04.745Z,100111.41
2023-04-16T23:10:08.660Z,100092.59
2023-04-16T23:13:11.442Z,100093.81
2023-04-16T23:16:13.871Z,100077.22
2023-04-16T23:19:16.379Z,100087.16
2023-04-16T23:22:18.782Z,100081.41
2023-04-16T23:25:22.511Z,100104.88
2023-04-16T23:28:24.918Z,100084.91
2023-04-16T23:31:27.375Z,100097.34
2023-04-16T23:34:29.925Z,100110.84
2023-04-16T23:37:32.419Z,100083.91
2023-04-16T23:40:34.974Z,100098.53
2023-04-16T23:43:40.025Z,100064.97
2023-04-16T23:46:42.528Z,100083.63
2023-04-16T23:49:45.179Z,100118.81
2023-04-16T23:52:47.736Z,100121.34
2023-04-16T23:55:50.214Z,100095.41
2023-04-16T23:58:52.660Z,100091.03
